sensor_id;sensor_type;location;lat;lon;timestamp;P1;durP1;ratioP1;P2;durP2;ratioP2
20619;SDS011;10469;42.720;23.252;2022-08-01T00:01:36;5.70;;;3.38;;
20619;SDS011;10469;42.720;23.252;2022-08-01T00:04:02;4.97;;;3.50;;
20619;SDS011;10469;42.720;23.252;2022-08-01T00:06:28;6.38;;;3.35;;
20619;SDS011;10469;42.720;23.252;2022-08-01T00:08:53;4.03;;;3.38;;
20619;SDS011;10469;42.720;23.252;2022-08-01T00:11:19;4.22;;;3.50;;
20619;SDS011;10469;42.720;23.252;2022-08-01T00:13:45;3.67;;;3.10;;
20619;SDS011;10469;42.720;23.252;2022-08-01T00:16:10;5.20;;;3.20;;
20619;SDS011;10469;42.720;23.252;2022-08-01T00:18:36;4.72;;;2.95;;
20619;SDS011;10469;42.720;23.252;2022-08-01T00:21:02;3.63;;;3.30;;
20619;SDS011;10469;42.720;23.252;2022-08-01T00:23:28;4.00;;;3.30;;
20619;SDS011;10469;42.720;23.252;2022-08-01T00:25:54;5.80;;;3.78;;
20619;SDS011;10469;42.720;23.252;2022-08-01T00:28:19;4.30;;;3.95;;
20619;SDS011;10469;42.720;23.252;2022-08-01T00:30:45;6.35;;;4.18;;
20619;SDS011;10469;42.720;23.252;2022-08-01T00:33:10;4.43;;;4.05;;
20619;SDS011;10469;42.720;23.252;2022-08-01T00:35:36;5.38;;;4.65;;
20619;SDS011;10469;42.720;23.252;2022-08-01T00:38:01;5.03;;;4.15;;
20619;SDS011;10469;42.720;23.252;2022-08-01T00:40:27;8.15;;;4.85;;
20619;SDS011;10469;42.720;23.252;2022-08-01T00:42:52;6.72;;;4.78;;
20619;SDS011;10469;42.720;23.252;2022-08-01T00:45:18;5.65;;;5.13;;
20619;SDS011;10469;42.720;23.252;2022-08-01T00:47:43;5.70;;;5.20;;
20619;SDS011;10469;42.720;23.252;2022-08-01T00:50:09;5.53;;;5.03;;
20619;SDS011;10469;42.720;23.252;2022-08-01T00:52:35;5.22;;;4.72;;
20619;SDS011;10469;42.720;23.252;2022-08-01T00:55:01;6.57;;;5.15;;
20619;SDS011;10469;42.720;23.252;2022-08-01T00:57:27;9.25;;;5.00;;
20619;SDS011;10469;42.720;23.252;2022-08-01T00:59:54;5.45;;;4.95;;
20619;SDS011;10469;42.720;23.252;2022-08-01T01:02:20;6.00;;;4.90;;
20619;SDS011;10469;42.720;23.252;2022-08-01T01:04:45;5.53;;;4.15;;
20619;SDS011;10469;42.720;23.252;2022-08-01T01:12:51;7.47;;;4.50;;
20619;SDS011;10469;42.720;23.252;2022-08-01T01:18:03;8.93;;;4.18;;
20619;SDS011;10469;42.720;23.252;2022-08-01T01:20:42;4.45;;;4.05;;
20619;SDS011;10469;42.720;23.252;2022-08-01T01:26:21;4.20;;;3.80;;
20619;SDS011;10469;42.720;23.252;2022-08-01T01:29:24;4.55;;;3.40;;
20619;SDS011;10469;42.720;23.252;2022-08-01T01:32:02;4.78;;;3.63;;
20619;SDS011;10469;42.720;23.252;2022-08-01T01:34:35;4.80;;;3.75;;
20619;SDS011;10469;42.720;23.252;2022-08-01T01:37:03;3.83;;;3.38;;
20619;SDS011;10469;42.720;23.252;2022-08-01T01:39:31;3.88;;;3.30;;
20619;SDS011;10469;42.720;23.252;2022-08-01T01:41:58;8.80;;;3.28;;
20619;SDS011;10469;42.720;23.252;2022-08-01T01:44:27;5.65;;;3.45;;
20619;SDS011;10469;42.720;23.252;2022-08-01T01:46:55;8.05;;;3.38;;
20619;SDS011;10469;42.720;23.252;2022-08-01T01:49:23;11.00;;;3.20;;
20619;SDS011;10469;42.720;23.252;2022-08-01T01:51:51;5.30;;;2.45;;
20619;SDS011;10469;42.720;23.252;2022-08-01T01:54:19;2.90;;;2.70;;
20619;SDS011;10469;42.720;23.252;2022-08-01T01:56:50;3.83;;;2.88;;
20619;SDS011;10469;42.720;23.252;2022-08-01T01:59:21;5.47;;;2.33;;
20619;SDS011;10469;42.720;23.252;2022-08-01T02:01:52;3.40;;;2.65;;
20619;SDS011;10469;42.720;23.252;2022-08-01T02:04:20;3.67;;;2.80;;
20619;SDS011;10469;42.720;23.252;2022-08-01T02:06:48;5.00;;;2.60;;
20619;SDS011;10469;42.720;23.252;2022-08-01T02:09:16;4.15;;;2.85;;
20619;SDS011;10469;42.720;23.252;2022-08-01T02:11:44;6.47;;;2.92;;
20619;SDS011;10469;42.720;23.252;2022-08-01T02:14:11;3.47;;;2.67;;
20619;SDS011;10469;42.720;23.252;2022-08-01T02:16:39;4.05;;;2.50;;
20619;SDS011;10469;42.720;23.252;2022-08-01T02:19:07;4.60;;;2.05;;
20619;SDS011;10469;42.720;23.252;2022-08-01T02:21:46;2.60;;;2.40;;
20619;SDS011;10469;42.720;23.252;2022-08-01T02:26:56;4.90;;;2.05;;
20619;SDS011;10469;42.720;23.252;2022-08-01T02:29:28;3.17;;;2.38;;
20619;SDS011;10469;42.720;23.252;2022-08-01T02:32:01;3.38;;;2.00;;
20619;SDS011;10469;42.720;23.252;2022-08-01T02:34:29;4.43;;;2.63;;
20619;SDS011;10469;42.720;23.252;2022-08-01T02:36:57;5.25;;;2.83;;
20619;SDS011;10469;42.720;23.252;2022-08-01T02:39:25;3.67;;;2.92;;
20619;SDS011;10469;42.720;23.252;2022-08-01T02:41:54;6.78;;;3.30;;
20619;SDS011;10469;42.720;23.252;2022-08-01T02:44:24;4.15;;;2.90;;
20619;SDS011;10469;42.720;23.252;2022-08-01T02:46:58;4.70;;;3.10;;
20619;SDS011;10469;42.720;23.252;2022-08-01T02:49:28;3.70;;;3.10;;
20619;SDS011;10469;42.720;23.252;2022-08-01T02:51:57;4.75;;;3.60;;
20619;SDS011;10469;42.720;23.252;2022-08-01T02:54:26;6.45;;;3.83;;
20619;SDS011;10469;42.720;23.252;2022-08-01T02:56:52;5.95;;;3.35;;
20619;SDS011;10469;42.720;23.252;2022-08-01T03:19:35;8.88;;;3.75;;
20619;SDS011;10469;42.720;23.252;2022-08-01T03:22:04;11.30;;;3.50;;
20619;SDS011;10469;42.720;23.252;2022-08-01T03:24:35;7.68;;;3.50;;
20619;SDS011;10469;42.720;23.252;2022-08-01T03:27:03;7.68;;;4.10;;
20619;SDS011;10469;42.720;23.252;2022-08-01T03:29:30;10.60;;;4.05;;
20619;SDS011;10469;42.720;23.252;2022-08-01T03:31:58;7.88;;;4.35;;
20619;SDS011;10469;42.720;23.252;2022-08-01T03:34:25;9.90;;;4.80;;
20619;SDS011;10469;42.720;23.252;2022-08-01T03:39:40;9.00;;;4.97;;
20619;SDS011;10469;42.720;23.252;2022-08-01T03:42:12;8.48;;;5.70;;
20619;SDS011;10469;42.720;23.252;2022-08-01T03:44:43;5.80;;;4.93;;
20619;SDS011;10469;42.720;23.252;2022-08-01T03:47:15;10.50;;;4.70;;
20619;SDS011;10469;42.720;23.252;2022-08-01T03:49:42;6.50;;;4.38;;
20619;SDS011;10469;42.720;23.252;2022-08-01T03:52:09;6.22;;;4.05;;
20619;SDS011;10469;42.720;23.252;2022-08-01T03:54:37;9.40;;;4.47;;
20619;SDS011;10469;42.720;23.252;2022-08-01T03:57:08;8.15;;;5.25;;
20619;SDS011;10469;42.720;23.252;2022-08-01T03:59:35;9.13;;;5.03;;
20619;SDS011;10469;42.720;23.252;2022-08-01T04:02:02;15.85;;;6.03;;
20619;SDS011;10469;42.720;23.252;2022-08-01T04:04:29;11.65;;;6.40;;
20619;SDS011;10469;42.720;23.252;2022-08-01T04:06:55;16.42;;;6.43;;
20619;SDS011;10469;42.720;23.252;2022-08-01T04:09:20;15.27;;;6.88;;
20619;SDS011;10469;42.720;23.252;2022-08-01T04:11:46;8.73;;;5.57;;
20619;SDS011;10469;42.720;23.252;2022-08-01T04:14:12;11.60;;;6.10;;
20619;SDS011;10469;42.720;23.252;2022-08-01T04:16:37;11.57;;;6.85;;
20619;SDS011;10469;42.720;23.252;2022-08-01T04:19:03;13.82;;;7.30;;
20619;SDS011;10469;42.720;23.252;2022-08-01T04:21:32;26.98;;;9.27;;
20619;SDS011;10469;42.720;23.252;2022-08-01T04:24:00;17.48;;;9.25;;
20619;SDS011;10469;42.720;23.252;2022-08-01T04:26:30;20.27;;;9.07;;
20619;SDS011;10469;42.720;23.252;2022-08-01T04:28:58;17.80;;;10.00;;
20619;SDS011;10469;42.720;23.252;2022-08-01T04:31:27;18.77;;;10.02;;
20619;SDS011;10469;42.720;23.252;2022-08-01T04:33:55;18.85;;;9.68;;
20619;SDS011;10469;42.720;23.252;2022-08-01T04:36:23;16.25;;;9.30;;
20619;SDS011;10469;42.720;23.252;2022-08-01T04:38:50;19.65;;;9.73;;
20619;SDS011;10469;42.720;23.252;2022-08-01T04:41:20;16.75;;;9.18;;
20619;SDS011;10469;42.720;23.252;2022-08-01T04:43:47;19.98;;;9.55;;
20619;SDS011;10469;42.720;23.252;2022-08-01T04:46:13;20.08;;;8.25;;
20619;SDS011;10469;42.720;23.252;2022-08-01T04:48:40;15.88;;;8.20;;
20619;SDS011;10469;42.720;23.252;2022-08-01T04:51:13;10.02;;;6.72;;
20619;SDS011;10469;42.720;23.252;2022-08-01T04:53:42;13.32;;;6.78;;
20619;SDS011;10469;42.720;23.252;2022-08-01T04:56:13;9.15;;;6.82;;
20619;SDS011;10469;42.720;23.252;2022-08-01T04:58:41;13.45;;;6.55;;
20619;SDS011;10469;42.720;23.252;2022-08-01T05:01:08;8.38;;;6.25;;
20619;SDS011;10469;42.720;23.252;2022-08-01T05:03:34;12.07;;;6.15;;
20619;SDS011;10469;42.720;23.252;2022-08-01T05:05:59;12.32;;;6.57;;
20619;SDS011;10469;42.720;23.252;2022-08-01T05:08:25;13.02;;;6.50;;
20619;SDS011;10469;42.720;23.252;2022-08-01T05:10:50;20.25;;;6.70;;
20619;SDS011;10469;42.720;23.252;2022-08-01T05:13:16;13.30;;;6.20;;
20619;SDS011;10469;42.720;23.252;2022-08-01T05:15:41;12.80;;;6.68;;
20619;SDS011;10469;42.720;23.252;2022-08-01T05:18:08;11.85;;;6.32;;
20619;SDS011;10469;42.720;23.252;2022-08-01T05:20:33;13.98;;;6.68;;
20619;SDS011;10469;42.720;23.252;2022-08-01T05:22:59;9.80;;;6.18;;
20619;SDS011;10469;42.720;23.252;2022-08-01T05:25:24;12.75;;;6.53;;
20619;SDS011;10469;42.720;23.252;2022-08-01T05:27:49;12.57;;;6.10;;
20619;SDS011;10469;42.720;23.252;2022-08-01T05:30:15;18.02;;;6.50;;
20619;SDS011;10469;42.720;23.252;2022-08-01T05:32:40;9.73;;;6.30;;
20619;SDS011;10469;42.720;23.252;2022-08-01T05:35:06;13.48;;;5.93;;
20619;SDS011;10469;42.720;23.252;2022-08-01T05:37:32;20.00;;;5.50;;
20619;SDS011;10469;42.720;23.252;2022-08-01T05:39:58;11.35;;;5.68;;
20619;SDS011;10469;42.720;23.252;2022-08-01T05:42:23;9.57;;;5.20;;
20619;SDS011;10469;42.720;23.252;2022-08-01T05:44:49;9.52;;;5.97;;
20619;SDS011;10469;42.720;23.252;2022-08-01T05:47:16;10.25;;;5.05;;
20619;SDS011;10469;42.720;23.252;2022-08-01T05:49:42;6.35;;;4.53;;
20619;SDS011;10469;42.720;23.252;2022-08-01T05:52:07;7.00;;;5.20;;
20619;SDS011;10469;42.720;23.252;2022-08-01T05:54:33;11.65;;;4.63;;
20619;SDS011;10469;42.720;23.252;2022-08-01T05:56:58;7.22;;;4.55;;
20619;SDS011;10469;42.720;23.252;2022-08-01T05:59:29;6.55;;;4.60;;
20619;SDS011;10469;42.720;23.252;2022-08-01T06:01:55;7.47;;;4.20;;
20619;SDS011;10469;42.720;23.252;2022-08-01T06:04:21;8.18;;;3.83;;
20619;SDS011;10469;42.720;23.252;2022-08-01T06:06:46;6.85;;;3.45;;
20619;SDS011;10469;42.720;23.252;2022-08-01T06:09:12;9.32;;;3.60;;
20619;SDS011;10469;42.720;23.252;2022-08-01T06:11:37;6.53;;;3.00;;
20619;SDS011;10469;42.720;23.252;2022-08-01T06:14:03;6.43;;;3.40;;
20619;SDS011;10469;42.720;23.252;2022-08-01T06:16:28;3.38;;;2.70;;
20619;SDS011;10469;42.720;23.252;2022-08-01T06:18:54;5.55;;;2.90;;
20619;SDS011;10469;42.720;23.252;2022-08-01T06:21:19;3.67;;;2.70;;
20619;SDS011;10469;42.720;23.252;2022-08-01T06:23:44;3.92;;;2.80;;
20619;SDS011;10469;42.720;23.252;2022-08-01T06:26:10;9.75;;;3.00;;
20619;SDS011;10469;42.720;23.252;2022-08-01T06:28:36;4.15;;;2.30;;
20619;SDS011;10469;42.720;23.252;2022-08-01T06:31:02;7.82;;;3.10;;
20619;SDS011;10469;42.720;23.252;2022-08-01T06:33:28;6.05;;;2.40;;
20619;SDS011;10469;42.720;23.252;2022-08-01T06:35:53;6.65;;;2.35;;
20619;SDS011;10469;42.720;23.252;2022-08-01T06:38:19;6.18;;;2.55;;
20619;SDS011;10469;42.720;23.252;2022-08-01T06:40:44;9.63;;;2.40;;
20619;SDS011;10469;42.720;23.252;2022-08-01T06:43:10;8.75;;;3.00;;
20619;SDS011;10469;42.720;23.252;2022-08-01T06:45:39;4.05;;;2.30;;
20619;SDS011;10469;42.720;23.252;2022-08-01T06:48:05;5.55;;;2.42;;
20619;SDS011;10469;42.720;23.252;2022-08-01T06:50:31;3.40;;;2.60;;
20619;SDS011;10469;42.720;23.252;2022-08-01T06:52:57;4.03;;;2.70;;
20619;SDS011;10469;42.720;23.252;2022-08-01T06:55:22;8.80;;;2.58;;
20619;SDS011;10469;42.720;23.252;2022-08-01T06:57:49;4.18;;;2.63;;
20619;SDS011;10469;42.720;23.252;2022-08-01T07:00:16;5.10;;;2.72;;
20619;SDS011;10469;42.720;23.252;2022-08-01T07:02:46;8.75;;;2.55;;
20619;SDS011;10469;42.720;23.252;2022-08-01T07:05:12;4.25;;;2.40;;
20619;SDS011;10469;42.720;23.252;2022-08-01T07:07:38;7.25;;;2.55;;
20619;SDS011;10469;42.720;23.252;2022-08-01T07:10:04;7.15;;;2.20;;
20619;SDS011;10469;42.720;23.252;2022-08-01T07:12:30;7.03;;;2.53;;
20619;SDS011;10469;42.720;23.252;2022-08-01T07:14:55;2.45;;;2.25;;
20619;SDS011;10469;42.720;23.252;2022-08-01T07:17:21;2.88;;;2.30;;
20619;SDS011;10469;42.720;23.252;2022-08-01T07:19:46;3.45;;;2.25;;
20619;SDS011;10469;42.720;23.252;2022-08-01T07:22:12;4.13;;;2.40;;
20619;SDS011;10469;42.720;23.252;2022-08-01T07:24:39;2.88;;;2.50;;
20619;SDS011;10469;42.720;23.252;2022-08-01T07:27:05;3.20;;;2.33;;
20619;SDS011;10469;42.720;23.252;2022-08-01T07:29:30;6.55;;;2.45;;
20619;SDS011;10469;42.720;23.252;2022-08-01T07:31:57;2.85;;;2.40;;
20619;SDS011;10469;42.720;23.252;2022-08-01T07:34:23;7.72;;;2.53;;
20619;SDS011;10469;42.720;23.252;2022-08-01T07:36:49;5.63;;;2.53;;
20619;SDS011;10469;42.720;23.252;2022-08-01T07:39:16;8.52;;;2.63;;
20619;SDS011;10469;42.720;23.252;2022-08-01T07:41:41;3.55;;;2.38;;
20619;SDS011;10469;42.720;23.252;2022-08-01T07:44:07;2.60;;;2.40;;
20619;SDS011;10469;42.720;23.252;2022-08-01T07:46:32;6.90;;;2.50;;
20619;SDS011;10469;42.720;23.252;2022-08-01T07:48:58;7.15;;;2.35;;
20619;SDS011;10469;42.720;23.252;2022-08-01T07:51:23;4.75;;;2.30;;
20619;SDS011;10469;42.720;23.252;2022-08-01T07:53:49;7.90;;;2.22;;
20619;SDS011;10469;42.720;23.252;2022-08-01T07:56:14;9.48;;;2.65;;
20619;SDS011;10469;42.720;23.252;2022-08-01T07:58:40;3.80;;;2.38;;
20619;SDS011;10469;42.720;23.252;2022-08-01T08:01:05;5.05;;;2.15;;
20619;SDS011;10469;42.720;23.252;2022-08-01T08:03:31;3.45;;;2.53;;
20619;SDS011;10469;42.720;23.252;2022-08-01T08:05:56;7.15;;;2.10;;
20619;SDS011;10469;42.720;23.252;2022-08-01T08:08:22;2.65;;;2.40;;
20619;SDS011;10469;42.720;23.252;2022-08-01T08:10:48;5.60;;;2.45;;
20619;SDS011;10469;42.720;23.252;2022-08-01T08:13:13;4.53;;;2.20;;
20619;SDS011;10469;42.720;23.252;2022-08-01T08:15:39;4.20;;;2.65;;
20619;SDS011;10469;42.720;23.252;2022-08-01T08:18:04;6.45;;;2.67;;
20619;SDS011;10469;42.720;23.252;2022-08-01T08:20:30;8.90;;;2.90;;
20619;SDS011;10469;42.720;23.252;2022-08-01T08:22:56;16.27;;;2.85;;
20619;SDS011;10469;42.720;23.252;2022-08-01T08:25:23;4.07;;;2.40;;
20619;SDS011;10469;42.720;23.252;2022-08-01T08:27:51;6.45;;;2.60;;
20619;SDS011;10469;42.720;23.252;2022-08-01T08:30:17;11.90;;;2.53;;
20619;SDS011;10469;42.720;23.252;2022-08-01T08:32:43;5.20;;;2.08;;
20619;SDS011;10469;42.720;23.252;2022-08-01T08:35:09;3.50;;;2.60;;
20619;SDS011;10469;42.720;23.252;2022-08-01T08:37:35;3.05;;;2.67;;
20619;SDS011;10469;42.720;23.252;2022-08-01T08:40:02;11.70;;;3.05;;
20619;SDS011;10469;42.720;23.252;2022-08-01T08:42:28;4.15;;;2.58;;
20619;SDS011;10469;42.720;23.252;2022-08-01T08:44:54;6.03;;;2.58;;
20619;SDS011;10469;42.720;23.252;2022-08-01T08:47:20;9.90;;;2.35;;
20619;SDS011;10469;42.720;23.252;2022-08-01T08:49:48;4.93;;;2.53;;
20619;SDS011;10469;42.720;23.252;2022-08-01T08:52:15;6.47;;;2.20;;
20619;SDS011;10469;42.720;23.252;2022-08-01T08:54:42;3.13;;;2.15;;
20619;SDS011;10469;42.720;23.252;2022-08-01T08:57:08;7.85;;;2.40;;
20619;SDS011;10469;42.720;23.252;2022-08-01T08:59:36;6.80;;;2.45;;
20619;SDS011;10469;42.720;23.252;2022-08-01T09:02:02;8.85;;;2.30;;
20619;SDS011;10469;42.720;23.252;2022-08-01T09:04:29;2.60;;;2.40;;
20619;SDS011;10469;42.720;23.252;2022-08-01T09:06:55;5.25;;;2.70;;
20619;SDS011;10469;42.720;23.252;2022-08-01T09:09:22;9.52;;;2.50;;
20619;SDS011;10469;42.720;23.252;2022-08-01T09:11:48;4.00;;;2.17;;
20619;SDS011;10469;42.720;23.252;2022-08-01T09:14:15;6.15;;;2.20;;
20619;SDS011;10469;42.720;23.252;2022-08-01T09:17:06;3.97;;;2.20;;
20619;SDS011;10469;42.720;23.252;2022-08-01T09:40:10;4.10;;;2.47;;
20619;SDS011;10469;42.720;23.252;2022-08-01T09:42:35;3.45;;;2.33;;
20619;SDS011;10469;42.720;23.252;2022-08-01T09:45:01;5.72;;;2.40;;
20619;SDS011;10469;42.720;23.252;2022-08-01T09:47:37;3.88;;;2.55;;
20619;SDS011;10469;42.720;23.252;2022-08-01T09:50:03;4.50;;;2.60;;
20619;SDS011;10469;42.720;23.252;2022-08-01T09:52:29;4.10;;;2.70;;
20619;SDS011;10469;42.720;23.252;2022-08-01T09:55:05;5.28;;;2.33;;
20619;SDS011;10469;42.720;23.252;2022-08-01T09:57:31;5.15;;;2.78;;
20619;SDS011;10469;42.720;23.252;2022-08-01T09:59:58;5.78;;;2.83;;
20619;SDS011;10469;42.720;23.252;2022-08-01T10:05:05;4.80;;;2.72;;
20619;SDS011;10469;42.720;23.252;2022-08-01T10:07:33;3.65;;;2.40;;
20619;SDS011;10469;42.720;23.252;2022-08-01T10:10:09;3.70;;;2.20;;
20619;SDS011;10469;42.720;23.252;2022-08-01T10:12:36;3.30;;;2.03;;
20619;SDS011;10469;42.720;23.252;2022-08-01T10:15:02;5.57;;;2.38;;
20619;SDS011;10469;42.720;23.252;2022-08-01T10:17:29;3.90;;;2.20;;
20619;SDS011;10469;42.720;23.252;2022-08-01T10:19:55;3.42;;;2.40;;
20619;SDS011;10469;42.720;23.252;2022-08-01T10:22:22;3.72;;;2.33;;
20619;SDS011;10469;42.720;23.252;2022-08-01T10:24:50;6.53;;;2.42;;
20619;SDS011;10469;42.720;23.252;2022-08-01T10:27:21;5.10;;;2.60;;
20619;SDS011;10469;42.720;23.252;2022-08-01T10:30:00;2.65;;;2.17;;
20619;SDS011;10469;42.720;23.252;2022-08-01T10:32:33;3.55;;;2.35;;
20619;SDS011;10469;42.720;23.252;2022-08-01T10:35:00;4.82;;;2.00;;
20619;SDS011;10469;42.720;23.252;2022-08-01T10:37:26;3.35;;;2.00;;
20619;SDS011;10469;42.720;23.252;2022-08-01T10:39:52;8.25;;;2.65;;
20619;SDS011;10469;42.720;23.252;2022-08-01T10:42:19;3.92;;;2.30;;
20619;SDS011;10469;42.720;23.252;2022-08-01T10:44:45;5.05;;;2.38;;
20619;SDS011;10469;42.720;23.252;2022-08-01T10:47:17;2.10;;;1.90;;
20619;SDS011;10469;42.720;23.252;2022-08-01T10:52:36;2.92;;;2.10;;
20619;SDS011;10469;42.720;23.252;2022-08-01T10:55:06;4.15;;;2.20;;
20619;SDS011;10469;42.720;23.252;2022-08-01T10:57:46;3.55;;;2.30;;
20619;SDS011;10469;42.720;23.252;2022-08-01T11:00:22;6.50;;;2.35;;
20619;SDS011;10469;42.720;23.252;2022-08-01T11:03:00;2.60;;;2.33;;
20619;SDS011;10469;42.720;23.252;2022-08-01T11:05:30;7.30;;;2.60;;
20619;SDS011;10469;42.720;23.252;2022-08-01T11:07:57;6.10;;;2.70;;
20619;SDS011;10469;42.720;23.252;2022-08-01T11:13:04;4.75;;;2.20;;
20619;SDS011;10469;42.720;23.252;2022-08-01T11:15:34;2.72;;;2.40;;
20619;SDS011;10469;42.720;23.252;2022-08-01T11:18:01;3.15;;;2.25;;
20619;SDS011;10469;42.720;23.252;2022-08-01T11:20:29;3.17;;;2.20;;
20619;SDS011;10469;42.720;23.252;2022-08-01T11:30:38;3.40;;;2.15;;
20619;SDS011;10469;42.720;23.252;2022-08-01T11:33:05;4.28;;;2.53;;
20619;SDS011;10469;42.720;23.252;2022-08-01T11:35:31;5.22;;;2.50;;
20619;SDS011;10469;42.720;23.252;2022-08-01T11:38:03;5.82;;;2.33;;
20619;SDS011;10469;42.720;23.252;2022-08-01T11:49:37;4.45;;;2.38;;
20619;SDS011;10469;42.720;23.252;2022-08-01T11:52:14;3.25;;;2.30;;
20619;SDS011;10469;42.720;23.252;2022-08-01T11:57:09;5.10;;;2.65;;
20619;SDS011;10469;42.720;23.252;2022-08-01T11:59:44;2.95;;;2.65;;
20619;SDS011;10469;42.720;23.252;2022-08-01T12:02:23;5.05;;;3.00;;
20619;SDS011;10469;42.720;23.252;2022-08-01T12:05:06;3.88;;;2.80;;
20619;SDS011;10469;42.720;23.252;2022-08-01T12:07:35;2.78;;;2.42;;
20619;SDS011;10469;42.720;23.252;2022-08-01T12:10:08;4.18;;;2.45;;
20619;SDS011;10469;42.720;23.252;2022-08-01T12:12:37;5.13;;;2.60;;
20619;SDS011;10469;42.720;23.252;2022-08-01T12:15:09;5.72;;;2.92;;
20619;SDS011;10469;42.720;23.252;2022-08-01T12:17:39;2.85;;;2.65;;
20619;SDS011;10469;42.720;23.252;2022-08-01T12:20:13;5.97;;;2.40;;
20619;SDS011;10469;42.720;23.252;2022-08-01T12:22:40;4.13;;;2.53;;
20619;SDS011;10469;42.720;23.252;2022-08-01T12:25:09;3.92;;;2.30;;
20619;SDS011;10469;42.720;23.252;2022-08-01T12:27:37;3.72;;;3.30;;
20619;SDS011;10469;42.720;23.252;2022-08-01T12:30:05;9.40;;;2.80;;
20619;SDS011;10469;42.720;23.252;2022-08-01T12:32:33;3.75;;;2.92;;
20619;SDS011;10469;42.720;23.252;2022-08-01T12:38:01;7.13;;;2.55;;
20619;SDS011;10469;42.720;23.252;2022-08-01T12:40:29;7.72;;;2.83;;
20619;SDS011;10469;42.720;23.252;2022-08-01T12:42:58;5.97;;;2.67;;
20619;SDS011;10469;42.720;23.252;2022-08-01T12:45:37;7.82;;;2.80;;
20619;SDS011;10469;42.720;23.252;2022-08-01T12:48:10;5.85;;;2.58;;
20619;SDS011;10469;42.720;23.252;2022-08-01T12:50:38;5.43;;;2.58;;
20619;SDS011;10469;42.720;23.252;2022-08-01T12:53:05;7.82;;;2.45;;
20619;SDS011;10469;42.720;23.252;2022-08-01T12:55:33;4.40;;;2.40;;
20619;SDS011;10469;42.720;23.252;2022-08-01T12:58:06;2.85;;;2.42;;
20619;SDS011;10469;42.720;23.252;2022-08-01T13:00:37;2.40;;;2.20;;
20619;SDS011;10469;42.720;23.252;2022-08-01T13:08:09;6.93;;;2.53;;
20619;SDS011;10469;42.720;23.252;2022-08-01T13:10:39;2.92;;;2.38;;
20619;SDS011;10469;42.720;23.252;2022-08-01T13:13:06;6.88;;;2.60;;
20619;SDS011;10469;42.720;23.252;2022-08-01T13:15:33;3.92;;;2.20;;
20619;SDS011;10469;42.720;23.252;2022-08-01T13:20:50;5.45;;;2.45;;
20619;SDS011;10469;42.720;23.252;2022-08-01T13:23:31;6.78;;;2.50;;
20619;SDS011;10469;42.720;23.252;2022-08-01T13:25:57;5.72;;;2.53;;
20619;SDS011;10469;42.720;23.252;2022-08-01T13:28:26;3.45;;;2.17;;
20619;SDS011;10469;42.720;23.252;2022-08-01T13:30:56;2.28;;;2.08;;
20619;SDS011;10469;42.720;23.252;2022-08-01T13:33:23;5.40;;;2.55;;
20619;SDS011;10469;42.720;23.252;2022-08-01T13:35:50;5.75;;;2.67;;
20619;SDS011;10469;42.720;23.252;2022-08-01T13:38:16;2.65;;;2.00;;
20619;SDS011;10469;42.720;23.252;2022-08-01T13:40:42;3.63;;;2.38;;
20619;SDS011;10469;42.720;23.252;2022-08-01T13:43:07;3.45;;;2.20;;
20619;SDS011;10469;42.720;23.252;2022-08-01T13:45:33;9.13;;;2.58;;
20619;SDS011;10469;42.720;23.252;2022-08-01T13:47:59;5.20;;;2.95;;
20619;SDS011;10469;42.720;23.252;2022-08-01T13:50:25;2.83;;;2.58;;
20619;SDS011;10469;42.720;23.252;2022-08-01T13:52:50;5.97;;;3.53;;
20619;SDS011;10469;42.720;23.252;2022-08-01T13:55:16;3.33;;;2.22;;
20619;SDS011;10469;42.720;23.252;2022-08-01T13:57:41;4.97;;;2.55;;
20619;SDS011;10469;42.720;23.252;2022-08-01T14:00:07;7.65;;;3.40;;
20619;SDS011;10469;42.720;23.252;2022-08-01T14:02:33;4.95;;;2.22;;
20619;SDS011;10469;42.720;23.252;2022-08-01T14:04:59;4.65;;;2.55;;
20619;SDS011;10469;42.720;23.252;2022-08-01T14:07:24;6.10;;;2.47;;
20619;SDS011;10469;42.720;23.252;2022-08-01T14:09:50;6.43;;;2.40;;
20619;SDS011;10469;42.720;23.252;2022-08-01T14:12:16;13.95;;;2.40;;
20619;SDS011;10469;42.720;23.252;2022-08-01T14:14:41;7.30;;;2.10;;
20619;SDS011;10469;42.720;23.252;2022-08-01T14:17:07;4.03;;;2.20;;
20619;SDS011;10469;42.720;23.252;2022-08-01T14:19:32;4.00;;;2.38;;
20619;SDS011;10469;42.720;23.252;2022-08-01T14:21:57;2.80;;;2.60;;
20619;SDS011;10469;42.720;23.252;2022-08-01T14:24:23;3.17;;;2.40;;
20619;SDS011;10469;42.720;23.252;2022-08-01T14:26:49;3.15;;;2.00;;
20619;SDS011;10469;42.720;23.252;2022-08-01T14:29:14;6.80;;;2.60;;
20619;SDS011;10469;42.720;23.252;2022-08-01T14:31:40;6.57;;;2.35;;
20619;SDS011;10469;42.720;23.252;2022-08-01T14:34:05;2.40;;;2.20;;
20619;SDS011;10469;42.720;23.252;2022-08-01T14:36:31;3.08;;;2.40;;
20619;SDS011;10469;42.720;23.252;2022-08-01T14:38:57;5.78;;;2.28;;
20619;SDS011;10469;42.720;23.252;2022-08-01T14:41:23;7.15;;;2.40;;
20619;SDS011;10469;42.720;23.252;2022-08-01T14:43:49;3.97;;;2.20;;
20619;SDS011;10469;42.720;23.252;2022-08-01T14:46:14;6.40;;;2.78;;
20619;SDS011;10469;42.720;23.252;2022-08-01T14:48:40;2.72;;;2.30;;
20619;SDS011;10469;42.720;23.252;2022-08-01T14:51:06;3.17;;;2.10;;
20619;SDS011;10469;42.720;23.252;2022-08-01T14:53:32;2.50;;;2.30;;
20619;SDS011;10469;42.720;23.252;2022-08-01T14:56:00;2.67;;;2.08;;
20619;SDS011;10469;42.720;23.252;2022-08-01T14:58:26;3.45;;;2.28;;
20619;SDS011;10469;42.720;23.252;2022-08-01T15:00:51;7.03;;;2.40;;
20619;SDS011;10469;42.720;23.252;2022-08-01T15:03:19;5.68;;;2.20;;
20619;SDS011;10469;42.720;23.252;2022-08-01T15:05:45;1.83;;;1.67;;
20619;SDS011;10469;42.720;23.252;2022-08-01T15:08:11;3.30;;;2.47;;
20619;SDS011;10469;42.720;23.252;2022-08-01T15:10:36;2.70;;;1.90;;
20619;SDS011;10469;42.720;23.252;2022-08-01T15:13:02;3.63;;;2.15;;
20619;SDS011;10469;42.720;23.252;2022-08-01T15:15:27;4.78;;;2.10;;
20619;SDS011;10469;42.720;23.252;2022-08-01T15:17:53;2.90;;;2.30;;
20619;SDS011;10469;42.720;23.252;2022-08-01T15:20:19;2.70;;;2.28;;
20619;SDS011;10469;42.720;23.252;2022-08-01T15:22:44;2.42;;;2.22;;
20619;SDS011;10469;42.720;23.252;2022-08-01T15:25:10;3.55;;;2.22;;
20619;SDS011;10469;42.720;23.252;2022-08-01T15:27:35;2.25;;;1.92;;
20619;SDS011;10469;42.720;23.252;2022-08-01T15:30:01;2.72;;;2.20;;
20619;SDS011;10469;42.720;23.252;2022-08-01T15:32:28;4.35;;;2.15;;
20619;SDS011;10469;42.720;23.252;2022-08-01T15:34:54;2.00;;;1.90;;
20619;SDS011;10469;42.720;23.252;2022-08-01T15:37:19;2.35;;;2.00;;
20619;SDS011;10469;42.720;23.252;2022-08-01T16:00:42;2.80;;;1.92;;
20619;SDS011;10469;42.720;23.252;2022-08-01T16:03:07;2.35;;;2.15;;
20619;SDS011;10469;42.720;23.252;2022-08-01T16:05:34;5.45;;;2.55;;
20619;SDS011;10469;42.720;23.252;2022-08-01T16:08:00;2.00;;;1.80;;
20619;SDS011;10469;42.720;23.252;2022-08-01T16:10:26;3.25;;;2.10;;
20619;SDS011;10469;42.720;23.252;2022-08-01T16:12:52;2.53;;;2.08;;
20619;SDS011;10469;42.720;23.252;2022-08-01T16:15:18;5.95;;;2.25;;
20619;SDS011;10469;42.720;23.252;2022-08-01T16:17:43;8.73;;;1.63;;
20619;SDS011;10469;42.720;23.252;2022-08-01T16:20:09;3.33;;;1.63;;
20619;SDS011;10469;42.720;23.252;2022-08-01T16:22:34;3.20;;;1.85;;
20619;SDS011;10469;42.720;23.252;2022-08-01T16:25:01;4.80;;;1.85;;
20619;SDS011;10469;42.720;23.252;2022-08-01T16:27:27;6.93;;;1.80;;
20619;SDS011;10469;42.720;23.252;2022-08-01T16:29:54;5.97;;;1.92;;
20619;SDS011;10469;42.720;23.252;2022-08-01T16:32:20;2.22;;;2.00;;